sensor_id;sensor_type;location;lat;lon;timestamp;P1;durP1;ratioP1;P2;durP2;ratioP2
84478;SDS011;74701;43.248;0.066;2024-01-30T00:02:12;47.50;;;35.05;;
84478;SDS011;74701;43.248;0.066;2024-01-30T00:04:38;44.35;;;30.83;;
84478;SDS011;74701;43.248;0.066;2024-01-30T00:07:04;47.50;;;32.13;;
84478;SDS011;74701;43.248;0.066;2024-01-30T00:09:32;40.70;;;30.38;;
84478;SDS011;74701;43.248;0.066;2024-01-30T00:11:59;40.35;;;29.40;;
84478;SDS011;74701;43.248;0.066;2024-01-30T00:14:25;50.83;;;31.05;;
84478;SDS011;74701;43.248;0.066;2024-01-30T00:16:51;46.25;;;31.35;;
84478;SDS011;74701;43.248;0.066;2024-01-30T00:19:17;42.08;;;28.88;;
84478;SDS011;74701;43.248;0.066;2024-01-30T00:21:43;47.38;;;31.33;;
84478;SDS011;74701;43.248;0.066;2024-01-30T00:24:09;44.17;;;28.20;;
84478;SDS011;74701;43.248;0.066;2024-01-30T00:26:35;40.17;;;28.05;;
84478;SDS011;74701;43.248;0.066;2024-01-30T00:29:01;41.40;;;27.35;;
84478;SDS011;74701;43.248;0.066;2024-01-30T00:31:28;36.08;;;25.30;;
84478;SDS011;74701;43.248;0.066;2024-01-30T00:33:54;41.25;;;28.83;;
84478;SDS011;74701;43.248;0.066;2024-01-30T00:36:20;41.17;;;26.40;;
84478;SDS011;74701;43.248;0.066;2024-01-30T00:38:46;38.72;;;25.40;;
84478;SDS011;74701;43.248;0.066;2024-01-30T00:41:12;38.50;;;25.15;;
84478;SDS011;74701;43.248;0.066;2024-01-30T00:43:38;39.65;;;26.05;;
84478;SDS011;74701;43.248;0.066;2024-01-30T00:46:05;42.60;;;26.17;;
84478;SDS011;74701;43.248;0.066;2024-01-30T00:48:31;33.40;;;24.05;;
84478;SDS011;74701;43.248;0.066;2024-01-30T00:50:57;37.83;;;24.42;;
84478;SDS011;74701;43.248;0.066;2024-01-30T00:53:23;35.33;;;24.23;;
84478;SDS011;74701;43.248;0.066;2024-01-30T00:55:50;35.00;;;24.52;;
84478;SDS011;74701;43.248;0.066;2024-01-30T00:58:16;43.70;;;25.95;;
84478;SDS011;74701;43.248;0.066;2024-01-30T01:00:44;38.83;;;25.30;;
84478;SDS011;74701;43.248;0.066;2024-01-30T01:03:10;39.17;;;25.85;;
84478;SDS011;74701;43.248;0.066;2024-01-30T01:05:36;41.25;;;26.17;;
84478;SDS011;74701;43.248;0.066;2024-01-30T01:08:02;47.47;;;30.58;;
84478;SDS011;74701;43.248;0.066;2024-01-30T01:10:28;43.83;;;30.23;;
84478;SDS011;74701;43.248;0.066;2024-01-30T01:12:54;46.22;;;29.88;;
84478;SDS011;74701;43.248;0.066;2024-01-30T01:15:20;51.20;;;28.85;;
84478;SDS011;74701;43.248;0.066;2024-01-30T01:17:46;41.83;;;26.95;;
84478;SDS011;74701;43.248;0.066;2024-01-30T01:20:12;40.22;;;28.05;;
84478;SDS011;74701;43.248;0.066;2024-01-30T01:22:38;45.97;;;27.08;;
84478;SDS011;74701;43.248;0.066;2024-01-30T01:25:05;33.78;;;23.02;;
84478;SDS011;74701;43.248;0.066;2024-01-30T01:27:35;38.78;;;24.10;;
84478;SDS011;74701;43.248;0.066;2024-01-30T01:30:06;37.55;;;24.38;;
84478;SDS011;74701;43.248;0.066;2024-01-30T01:32:34;36.75;;;25.17;;
84478;SDS011;74701;43.248;0.066;2024-01-30T01:35:00;37.83;;;24.83;;
84478;SDS011;74701;43.248;0.066;2024-01-30T01:37:26;39.50;;;25.98;;
84478;SDS011;74701;43.248;0.066;2024-01-30T01:39:52;40.58;;;25.48;;
84478;SDS011;74701;43.248;0.066;2024-01-30T01:42:18;37.35;;;24.73;;
84478;SDS011;74701;43.248;0.066;2024-01-30T01:44:44;46.30;;;28.35;;
84478;SDS011;74701;43.248;0.066;2024-01-30T01:47:10;37.55;;;23.60;;
84478;SDS011;74701;43.248;0.066;2024-01-30T01:49:36;44.97;;;25.88;;
84478;SDS011;74701;43.248;0.066;2024-01-30T01:52:03;41.00;;;25.00;;
84478;SDS011;74701;43.248;0.066;2024-01-30T01:54:29;38.83;;;27.08;;
84478;SDS011;74701;43.248;0.066;2024-01-30T01:56:55;37.13;;;23.70;;
84478;SDS011;74701;43.248;0.066;2024-01-30T01:59:22;42.33;;;24.95;;
84478;SDS011;74701;43.248;0.066;2024-01-30T02:01:49;43.17;;;25.98;;
84478;SDS011;74701;43.248;0.066;2024-01-30T02:04:16;47.28;;;26.83;;
84478;SDS011;74701;43.248;0.066;2024-01-30T02:06:42;38.35;;;25.73;;
84478;SDS011;74701;43.248;0.066;2024-01-30T02:09:09;41.50;;;26.45;;
84478;SDS011;74701;43.248;0.066;2024-01-30T02:11:35;42.38;;;26.13;;
84478;SDS011;74701;43.248;0.066;2024-01-30T02:14:04;40.05;;;25.67;;
84478;SDS011;74701;43.248;0.066;2024-01-30T02:16:31;44.90;;;25.95;;
84478;SDS011;74701;43.248;0.066;2024-01-30T02:18:57;46.00;;;27.23;;
84478;SDS011;74701;43.248;0.066;2024-01-30T02:21:23;44.70;;;25.30;;
84478;SDS011;74701;43.248;0.066;2024-01-30T02:23:50;37.75;;;25.50;;
84478;SDS011;74701;43.248;0.066;2024-01-30T02:26:18;31.90;;;20.30;;
84478;SDS011;74701;43.248;0.066;2024-01-30T02:28:44;36.83;;;22.20;;
84478;SDS011;74701;43.248;0.066;2024-01-30T02:31:10;35.03;;;20.48;;
84478;SDS011;74701;43.248;0.066;2024-01-30T02:33:36;31.27;;;18.80;;
84478;SDS011;74701;43.248;0.066;2024-01-30T02:36:02;38.67;;;21.30;;
84478;SDS011;74701;43.248;0.066;2024-01-30T02:38:28;34.25;;;22.15;;
84478;SDS011;74701;43.248;0.066;2024-01-30T02:40:54;29.50;;;20.05;;
84478;SDS011;74701;43.248;0.066;2024-01-30T02:43:21;37.47;;;19.77;;
84478;SDS011;74701;43.248;0.066;2024-01-30T02:45:48;32.28;;;19.27;;
84478;SDS011;74701;43.248;0.066;2024-01-30T02:48:14;35.38;;;20.40;;
84478;SDS011;74701;43.248;0.066;2024-01-30T02:50:40;29.38;;;20.23;;
84478;SDS011;74701;43.248;0.066;2024-01-30T02:53:06;28.80;;;18.30;;
84478;SDS011;74701;43.248;0.066;2024-01-30T02:55:32;36.83;;;20.08;;
84478;SDS011;74701;43.248;0.066;2024-01-30T02:57:58;35.38;;;20.60;;
84478;SDS011;74701;43.248;0.066;2024-01-30T03:00:24;37.63;;;22.33;;
84478;SDS011;74701;43.248;0.066;2024-01-30T03:02:50;44.70;;;23.25;;
84478;SDS011;74701;43.248;0.066;2024-01-30T03:05:16;41.95;;;24.50;;
84478;SDS011;74701;43.248;0.066;2024-01-30T03:07:43;35.60;;;21.55;;
84478;SDS011;74701;43.248;0.066;2024-01-30T03:10:09;36.20;;;19.67;;
84478;SDS011;74701;43.248;0.066;2024-01-30T03:12:35;41.17;;;21.88;;
84478;SDS011;74701;43.248;0.066;2024-01-30T03:15:01;33.15;;;20.67;;
84478;SDS011;74701;43.248;0.066;2024-01-30T03:17:27;34.00;;;19.20;;
84478;SDS011;74701;43.248;0.066;2024-01-30T03:19:53;29.48;;;19.27;;
84478;SDS011;74701;43.248;0.066;2024-01-30T03:22:19;31.10;;;18.60;;
84478;SDS011;74701;43.248;0.066;2024-01-30T03:24:45;25.10;;;16.15;;
84478;SDS011;74701;43.248;0.066;2024-01-30T03:27:11;26.98;;;16.75;;
84478;SDS011;74701;43.248;0.066;2024-01-30T03:29:37;29.45;;;17.67;;
84478;SDS011;74701;43.248;0.066;2024-01-30T03:32:03;32.03;;;20.33;;
84478;SDS011;74701;43.248;0.066;2024-01-30T03:34:29;33.10;;;20.02;;
84478;SDS011;74701;43.248;0.066;2024-01-30T03:36:55;34.75;;;19.67;;
84478;SDS011;74701;43.248;0.066;2024-01-30T03:39:22;28.15;;;17.27;;
84478;SDS011;74701;43.248;0.066;2024-01-30T03:41:48;30.58;;;19.20;;
84478;SDS011;74701;43.248;0.066;2024-01-30T03:44:14;33.15;;;19.42;;
84478;SDS011;74701;43.248;0.066;2024-01-30T03:46:40;29.85;;;17.40;;
84478;SDS011;74701;43.248;0.066;2024-01-30T03:49:06;26.45;;;15.77;;
84478;SDS011;74701;43.248;0.066;2024-01-30T03:51:33;28.25;;;16.95;;
84478;SDS011;74701;43.248;0.066;2024-01-30T03:53:59;23.80;;;14.93;;
84478;SDS011;74701;43.248;0.066;2024-01-30T03:56:25;23.55;;;14.80;;
84478;SDS011;74701;43.248;0.066;2024-01-30T03:58:51;27.92;;;18.75;;
84478;SDS011;74701;43.248;0.066;2024-01-30T04:01:18;27.92;;;17.00;;
84478;SDS011;74701;43.248;0.066;2024-01-30T04:03:44;22.55;;;13.82;;
84478;SDS011;74701;43.248;0.066;2024-01-30T04:06:10;19.73;;;13.77;;
84478;SDS011;74701;43.248;0.066;2024-01-30T04:08:36;18.13;;;12.43;;
84478;SDS011;74701;43.248;0.066;2024-01-30T04:11:05;20.73;;;12.38;;
84478;SDS011;74701;43.248;0.066;2024-01-30T04:13:32;20.17;;;12.38;;
84478;SDS011;74701;43.248;0.066;2024-01-30T04:16:01;18.75;;;12.88;;
84478;SDS011;74701;43.248;0.066;2024-01-30T04:18:28;17.52;;;11.85;;
84478;SDS011;74701;43.248;0.066;2024-01-30T04:20:54;19.23;;;12.23;;
84478;SDS011;74701;43.248;0.066;2024-01-30T04:23:20;17.65;;;13.38;;
84478;SDS011;74701;43.248;0.066;2024-01-30T04:25:46;23.55;;;12.85;;
84478;SDS011;74701;43.248;0.066;2024-01-30T04:28:12;22.63;;;13.90;;
84478;SDS011;74701;43.248;0.066;2024-01-30T04:30:38;19.70;;;13.30;;
84478;SDS011;74701;43.248;0.066;2024-01-30T04:33:04;18.65;;;13.02;;
84478;SDS011;74701;43.248;0.066;2024-01-30T04:35:30;20.55;;;12.93;;
84478;SDS011;74701;43.248;0.066;2024-01-30T04:37:56;20.08;;;13.43;;
84478;SDS011;74701;43.248;0.066;2024-01-30T04:40:22;22.42;;;13.57;;
84478;SDS011;74701;43.248;0.066;2024-01-30T04:42:49;26.35;;;15.02;;
84478;SDS011;74701;43.248;0.066;2024-01-30T04:45:15;31.58;;;18.25;;
84478;SDS011;74701;43.248;0.066;2024-01-30T04:47:41;25.15;;;15.80;;
84478;SDS011;74701;43.248;0.066;2024-01-30T04:50:07;27.85;;;17.85;;
84478;SDS011;74701;43.248;0.066;2024-01-30T04:52:33;26.30;;;16.63;;
84478;SDS011;74701;43.248;0.066;2024-01-30T04:55:00;25.45;;;17.27;;
84478;SDS011;74701;43.248;0.066;2024-01-30T04:57:26;22.75;;;14.85;;
84478;SDS011;74701;43.248;0.066;2024-01-30T04:59:52;24.23;;;16.60;;
84478;SDS011;74701;43.248;0.066;2024-01-30T05:02:18;26.17;;;15.60;;
84478;SDS011;74701;43.248;0.066;2024-01-30T05:04:44;19.85;;;14.05;;
84478;SDS011;74701;43.248;0.066;2024-01-30T05:07:10;25.73;;;14.27;;
84478;SDS011;74701;43.248;0.066;2024-01-30T05:09:36;22.90;;;15.82;;
84478;SDS011;74701;43.248;0.066;2024-01-30T05:12:02;24.45;;;15.00;;
84478;SDS011;74701;43.248;0.066;2024-01-30T05:14:29;23.70;;;15.23;;
84478;SDS011;74701;43.248;0.066;2024-01-30T05:16:55;27.67;;;15.63;;
84478;SDS011;74701;43.248;0.066;2024-01-30T05:19:21;26.35;;;16.30;;
84478;SDS011;74701;43.248;0.066;2024-01-30T05:21:48;24.00;;;16.17;;
84478;SDS011;74701;43.248;0.066;2024-01-30T05:24:14;26.63;;;15.38;;
84478;SDS011;74701;43.248;0.066;2024-01-30T05:26:40;27.00;;;17.33;;
84478;SDS011;74701;43.248;0.066;2024-01-30T05:29:06;32.33;;;16.92;;
84478;SDS011;74701;43.248;0.066;2024-01-30T05:31:33;29.33;;;17.95;;
84478;SDS011;74701;43.248;0.066;2024-01-30T05:33:59;27.80;;;19.30;;
84478;SDS011;74701;43.248;0.066;2024-01-30T05:36:25;24.80;;;14.85;;
84478;SDS011;74701;43.248;0.066;2024-01-30T05:38:51;22.98;;;16.05;;
84478;SDS011;74701;43.248;0.066;2024-01-30T05:41:17;27.40;;;17.30;;
84478;SDS011;74701;43.248;0.066;2024-01-30T05:43:44;26.85;;;17.40;;
84478;SDS011;74701;43.248;0.066;2024-01-30T05:46:10;29.33;;;18.00;;
84478;SDS011;74701;43.248;0.066;2024-01-30T05:48:36;29.73;;;18.13;;
84478;SDS011;74701;43.248;0.066;2024-01-30T05:51:02;33.20;;;17.77;;
84478;SDS011;74701;43.248;0.066;2024-01-30T05:53:29;31.73;;;18.48;;
84478;SDS011;74701;43.248;0.066;2024-01-30T05:55:55;27.73;;;17.35;;
84478;SDS011;74701;43.248;0.066;2024-01-30T05:58:21;26.98;;;14.85;;
84478;SDS011;74701;43.248;0.066;2024-01-30T06:00:47;26.20;;;16.33;;
84478;SDS011;74701;43.248;0.066;2024-01-30T06:03:13;25.40;;;16.98;;
84478;SDS011;74701;43.248;0.066;2024-01-30T06:05:39;26.27;;;16.33;;
84478;SDS011;74701;43.248;0.066;2024-01-30T06:08:05;31.80;;;16.58;;
84478;SDS011;74701;43.248;0.066;2024-01-30T06:10:31;28.83;;;17.15;;
84478;SDS011;74701;43.248;0.066;2024-01-30T06:12:57;25.83;;;14.80;;
84478;SDS011;74701;43.248;0.066;2024-01-30T06:15:23;26.33;;;16.85;;
84478;SDS011;74701;43.248;0.066;2024-01-30T06:17:49;28.42;;;16.67;;
84478;SDS011;74701;43.248;0.066;2024-01-30T06:20:16;27.13;;;17.30;;
84478;SDS011;74701;43.248;0.066;2024-01-30T06:22:42;30.65;;;16.48;;
84478;SDS011;74701;43.248;0.066;2024-01-30T06:25:08;25.38;;;16.30;;
84478;SDS011;74701;43.248;0.066;2024-01-30T06:27:35;24.67;;;16.83;;
84478;SDS011;74701;43.248;0.066;2024-01-30T06:30:01;30.40;;;17.27;;
84478;SDS011;74701;43.248;0.066;2024-01-30T06:32:27;25.92;;;18.08;;
84478;SDS011;74701;43.248;0.066;2024-01-30T06:34:53;30.40;;;19.65;;
84478;SDS011;74701;43.248;0.066;2024-01-30T06:37:19;25.30;;;17.25;;
84478;SDS011;74701;43.248;0.066;2024-01-30T06:39:46;29.48;;;17.02;;
84478;SDS011;74701;43.248;0.066;2024-01-30T06:42:12;33.05;;;19.25;;
84478;SDS011;74701;43.248;0.066;2024-01-30T06:44:39;29.08;;;17.75;;
84478;SDS011;74701;43.248;0.066;2024-01-30T06:47:06;25.10;;;16.77;;
84478;SDS011;74701;43.248;0.066;2024-01-30T06:49:32;27.17;;;15.55;;
84478;SDS011;74701;43.248;0.066;2024-01-30T06:51:58;25.20;;;16.20;;
84478;SDS011;74701;43.248;0.066;2024-01-30T06:54:24;28.48;;;15.80;;
84478;SDS011;74701;43.248;0.066;2024-01-30T06:56:50;22.25;;;14.20;;
84478;SDS011;74701;43.248;0.066;2024-01-30T06:59:16;23.58;;;14.85;;
84478;SDS011;74701;43.248;0.066;2024-01-30T07:01:42;25.55;;;14.73;;
84478;SDS011;74701;43.248;0.066;2024-01-30T07:04:08;26.55;;;14.32;;
84478;SDS011;74701;43.248;0.066;2024-01-30T07:06:34;28.50;;;14.48;;
84478;SDS011;74701;43.248;0.066;2024-01-30T07:09:00;21.77;;;14.43;;
84478;SDS011;74701;43.248;0.066;2024-01-30T07:11:26;25.35;;;15.50;;
84478;SDS011;74701;43.248;0.066;2024-01-30T07:13:53;27.15;;;16.35;;
84478;SDS011;74701;43.248;0.066;2024-01-30T07:16:20;28.60;;;15.88;;
84478;SDS011;74701;43.248;0.066;2024-01-30T07:18:47;20.35;;;14.05;;
84478;SDS011;74701;43.248;0.066;2024-01-30T07:21:14;25.85;;;15.05;;
84478;SDS011;74701;43.248;0.066;2024-01-30T07:23:40;24.42;;;15.05;;
84478;SDS011;74701;43.248;0.066;2024-01-30T07:26:07;27.73;;;15.60;;
84478;SDS011;74701;43.248;0.066;2024-01-30T07:28:33;25.20;;;15.20;;
84478;SDS011;74701;43.248;0.066;2024-01-30T07:31:00;25.23;;;14.60;;
84478;SDS011;74701;43.248;0.066;2024-01-30T07:33:26;28.90;;;13.82;;
84478;SDS011;74701;43.248;0.066;2024-01-30T07:35:52;23.80;;;13.90;;
84478;SDS011;74701;43.248;0.066;2024-01-30T07:38:19;22.90;;;14.68;;
84478;SDS011;74701;43.248;0.066;2024-01-30T07:40:45;20.73;;;12.48;;
84478;SDS011;74701;43.248;0.066;2024-01-30T07:43:11;22.52;;;13.68;;
84478;SDS011;74701;43.248;0.066;2024-01-30T07:45:37;20.83;;;13.20;;
84478;SDS011;74701;43.248;0.066;2024-01-30T07:48:05;23.75;;;13.70;;
84478;SDS011;74701;43.248;0.066;2024-01-30T07:50:31;22.65;;;14.98;;
84478;SDS011;74701;43.248;0.066;2024-01-30T07:52:58;24.10;;;14.98;;
84478;SDS011;74701;43.248;0.066;2024-01-30T07:55:24;23.27;;;14.95;;
84478;SDS011;74701;43.248;0.066;2024-01-30T07:57:53;27.10;;;15.07;;
84478;SDS011;74701;43.248;0.066;2024-01-30T08:00:23;24.17;;;14.18;;
84478;SDS011;74701;43.248;0.066;2024-01-30T08:02:52;21.80;;;12.45;;
84478;SDS011;74701;43.248;0.066;2024-01-30T08:05:19;19.92;;;12.55;;
84478;SDS011;74701;43.248;0.066;2024-01-30T08:07:47;21.80;;;11.77;;
84478;SDS011;74701;43.248;0.066;2024-01-30T08:10:14;20.73;;;11.50;;
84478;SDS011;74701;43.248;0.066;2024-01-30T08:12:43;22.17;;;11.10;;
84478;SDS011;74701;43.248;0.066;2024-01-30T08:15:11;16.13;;;10.50;;
84478;SDS011;74701;43.248;0.066;2024-01-30T08:17:40;18.92;;;10.23;;
84478;SDS011;74701;43.248;0.066;2024-01-30T08:20:06;23.92;;;9.88;;
84478;SDS011;74701;43.248;0.066;2024-01-30T08:22:33;14.27;;;8.98;;
84478;SDS011;74701;43.248;0.066;2024-01-30T08:24:59;18.05;;;10.90;;
84478;SDS011;74701;43.248;0.066;2024-01-30T08:27:25;18.15;;;10.10;;
84478;SDS011;74701;43.248;0.066;2024-01-30T08:29:51;21.13;;;9.93;;
84478;SDS011;74701;43.248;0.066;2024-01-30T08:32:17;21.92;;;10.80;;
84478;SDS011;74701;43.248;0.066;2024-01-30T08:34:44;17.40;;;9.23;;
84478;SDS011;74701;43.248;0.066;2024-01-30T08:37:10;13.98;;;9.07;;
84478;SDS011;74701;43.248;0.066;2024-01-30T08:39:37;13.60;;;9.50;;
84478;SDS011;74701;43.248;0.066;2024-01-30T08:42:03;14.15;;;7.40;;
84478;SDS011;74701;43.248;0.066;2024-01-30T08:44:29;11.25;;;6.95;;
84478;SDS011;74701;43.248;0.066;2024-01-30T08:46:55;11.40;;;6.65;;
84478;SDS011;74701;43.248;0.066;2024-01-30T08:49:21;12.85;;;6.80;;
84478;SDS011;74701;43.248;0.066;2024-01-30T08:51:47;13.05;;;7.72;;
84478;SDS011;74701;43.248;0.066;2024-01-30T08:54:14;15.38;;;8.10;;
84478;SDS011;74701;43.248;0.066;2024-01-30T08:56:40;14.23;;;7.80;;
84478;SDS011;74701;43.248;0.066;2024-01-30T08:59:06;13.48;;;6.93;;
84478;SDS011;74701;43.248;0.066;2024-01-30T09:01:32;11.85;;;6.72;;
84478;SDS011;74701;43.248;0.066;2024-01-30T09:03:58;13.15;;;6.65;;
84478;SDS011;74701;43.248;0.066;2024-01-30T09:06:24;13.55;;;7.32;;
84478;SDS011;74701;43.248;0.066;2024-01-30T09:08:52;11.55;;;7.30;;
84478;SDS011;74701;43.248;0.066;2024-01-30T09:11:19;16.67;;;8.80;;
84478;SDS011;74701;43.248;0.066;2024-01-30T09:13:45;15.48;;;8.18;;
84478;SDS011;74701;43.248;0.066;2024-01-30T09:16:11;17.60;;;9.07;;
84478;SDS011;74701;43.248;0.066;2024-01-30T09:18:37;16.30;;;8.50;;
84478;SDS011;74701;43.248;0.066;2024-01-30T09:21:03;22.60;;;9.73;;
84478;SDS011;74701;43.248;0.066;2024-01-30T09:23:29;15.05;;;9.02;;
84478;SDS011;74701;43.248;0.066;2024-01-30T09:25:55;20.42;;;9.90;;
84478;SDS011;74701;43.248;0.066;2024-01-30T09:28:21;16.35;;;9.75;;
84478;SDS011;74701;43.248;0.066;2024-01-30T09:30:47;15.73;;;9.90;;
84478;SDS011;74701;43.248;0.066;2024-01-30T09:33:13;17.50;;;8.55;;
84478;SDS011;74701;43.248;0.066;2024-01-30T09:35:39;17.40;;;8.57;;
84478;SDS011;74701;43.248;0.066;2024-01-30T09:38:06;21.52;;;9.73;;
84478;SDS011;74701;43.248;0.066;2024-01-30T09:40:32;15.35;;;8.48;;
84478;SDS011;74701;43.248;0.066;2024-01-30T09:42:58;18.38;;;9.60;;
84478;SDS011;74701;43.248;0.066;2024-01-30T09:45:27;18.63;;;9.93;;
84478;SDS011;74701;43.248;0.066;2024-01-30T09:47:53;14.82;;;8.85;;
84478;SDS011;74701;43.248;0.066;2024-01-30T09:50:19;21.17;;;9.38;;
84478;SDS011;74701;43.248;0.066;2024-01-30T09:52:46;17.65;;;8.65;;
84478;SDS011;74701;43.248;0.066;2024-01-30T09:55:12;17.95;;;8.60;;
84478;SDS011;74701;43.248;0.066;2024-01-30T09:57:39;12.90;;;7.20;;
84478;SDS011;74701;43.248;0.066;2024-01-30T10:00:05;16.77;;;8.32;;
84478;SDS011;74701;43.248;0.066;2024-01-30T10:02:35;17.83;;;8.85;;
84478;SDS011;74701;43.248;0.066;2024-01-30T10:05:01;11.98;;;7.25;;
84478;SDS011;74701;43.248;0.066;2024-01-30T10:07:27;13.93;;;8.43;;
84478;SDS011;74701;43.248;0.066;2024-01-30T10:09:55;13.45;;;7.13;;
84478;SDS011;74701;43.248;0.066;2024-01-30T10:12:21;12.32;;;6.75;;
84478;SDS011;74701;43.248;0.066;2024-01-30T10:14:47;12.27;;;6.97;;
84478;SDS011;74701;43.248;0.066;2024-01-30T10:17:14;15.40;;;6.45;;
84478;SDS011;74701;43.248;0.066;2024-01-30T10:19:40;13.98;;;7.78;;
84478;SDS011;74701;43.248;0.066;2024-01-30T10:22:06;17.73;;;7.10;;
84478;SDS011;74701;43.248;0.066;2024-01-30T10:24:35;18.38;;;8.25;;
84478;SDS011;74701;43.248;0.066;2024-01-30T10:27:02;13.60;;;7.03;;
84478;SDS011;74701;43.248;0.066;2024-01-30T10:29:28;15.93;;;8.18;;
84478;SDS011;74701;43.248;0.066;2024-01-30T10:32:00;14.35;;;7.75;;
84478;SDS011;74701;43.248;0.066;2024-01-30T10:34:26;11.30;;;6.78;;
84478;SDS011;74701;43.248;0.066;2024-01-30T10:39:40;13.38;;;8.00;;
84478;SDS011;74701;43.248;0.066;2024-01-30T10:42:07;11.73;;;7.53;;
84478;SDS011;74701;43.248;0.066;2024-01-30T10:44:37;14.50;;;8.25;;
84478;SDS011;74701;43.248;0.066;2024-01-30T10:47:06;14.93;;;7.68;;
84478;SDS011;74701;43.248;0.066;2024-01-30T10:49:33;15.52;;;7.15;;
84478;SDS011;74701;43.248;0.066;2024-01-30T10:51:59;13.10;;;6.95;;
84478;SDS011;74701;43.248;0.066;2024-01-30T10:54:26;23.98;;;8.02;;
84478;SDS011;74701;43.248;0.066;2024-01-30T10:56:52;15.00;;;7.10;;
84478;SDS011;74701;43.248;0.066;2024-01-30T10:59:18;11.27;;;5.60;;
84478;SDS011;74701;43.248;0.066;2024-01-30T11:01:45;13.20;;;6.07;;
84478;SDS011;74701;43.248;0.066;2024-01-30T11:04:11;14.45;;;5.65;;
84478;SDS011;74701;43.248;0.066;2024-01-30T11:06:41;9.65;;;5.22;;
84478;SDS011;74701;43.248;0.066;2024-01-30T11:09:11;15.60;;;5.07;;
84478;SDS011;74701;43.248;0.066;2024-01-30T11:14:26;11.25;;;5.13;;
84478;SDS011;74701;43.248;0.066;2024-01-30T11:16:53;8.10;;;4.15;;
84478;SDS011;74701;43.248;0.066;2024-01-30T11:19:25;11.35;;;5.40;;
84478;SDS011;74701;43.248;0.066;2024-01-30T11:21:55;9.38;;;3.90;;
84478;SDS011;74701;43.248;0.066;2024-01-30T11:24:22;13.32;;;3.92;;
84478;SDS011;74701;43.248;0.066;2024-01-30T11:26:49;6.85;;;3.30;;
84478;SDS011;74701;43.248;0.066;2024-01-30T11:29:18;7.03;;;2.90;;
84478;SDS011;74701;43.248;0.066;2024-01-30T11:31:51;6.60;;;2.72;;
84478;SDS011;74701;43.248;0.066;2024-01-30T11:34:18;4.90;;;2.63;;
84478;SDS011;74701;43.248;0.066;2024-01-30T11:36:44;12.60;;;3.58;;
84478;SDS011;74701;43.248;0.066;2024-01-30T11:39:11;11.45;;;3.92;;
84478;SDS011;74701;43.248;0.066;2024-01-30T11:41:37;7.20;;;3.10;;
84478;SDS011;74701;43.248;0.066;2024-01-30T11:44:04;8.82;;;3.53;;
84478;SDS011;74701;43.248;0.066;2024-01-30T11:46:30;8.15;;;3.17;;
84478;SDS011;74701;43.248;0.066;2024-01-30T11:48:56;9.80;;;2.92;;
84478;SDS011;74701;43.248;0.066;2024-01-30T11:51:22;4.97;;;3.03;;
84478;SDS011;74701;43.248;0.066;2024-01-30T11:53:51;8.45;;;3.20;;
84478;SDS011;74701;43.248;0.066;2024-01-30T11:56:17;7.60;;;3.15;;
84478;SDS011;74701;43.248;0.066;2024-01-30T11:58:43;6.95;;;2.92;;
84478;SDS011;74701;43.248;0.066;2024-01-30T12:01:10;6.15;;;3.10;;
84478;SDS011;74701;43.248;0.066;2024-01-30T12:03:36;7.55;;;2.67;;
84478;SDS011;74701;43.248;0.066;2024-01-30T12:06:02;12.05;;;2.90;;
84478;SDS011;74701;43.248;0.066;2024-01-30T12:08:31;7.05;;;2.53;;
84478;SDS011;74701;43.248;0.066;2024-01-30T12:10:57;9.43;;;3.38;;
84478;SDS011;74701;43.248;0.066;2024-01-30T12:13:24;6.97;;;2.65;;
84478;SDS011;74701;43.248;0.066;2024-01-30T12:15:51;8.43;;;3.00;;
84478;SDS011;74701;43.248;0.066;2024-01-30T12:18:20;10.13;;;2.97;;
84478;SDS011;74701;43.248;0.066;2024-01-30T12:20:56;7.18;;;2.67;;
84478;SDS011;74701;43.248;0.066;2024-01-30T12:23:23;8.23;;;2.67;;
84478;SDS011;74701;43.248;0.066;2024-01-30T12:25:50;6.28;;;2.03;;
84478;SDS011;74701;43.248;0.066;2024-01-30T12:28:17;6.13;;;2.33;;
84478;SDS011;74701;43.248;0.066;2024-01-30T12:30:43;5.03;;;2.75;;
84478;SDS011;74701;43.248;0.066;2024-01-30T12:33:09;4.50;;;2.38;;
84478;SDS011;74701;43.248;0.066;2024-01-30T12:35:35;6.60;;;2.78;;
84478;SDS011;74701;43.248;0.066;2024-01-30T12:38:01;5.32;;;2.83;;
84478;SDS011;74701;43.248;0.066;2024-01-30T12:40:27;7.47;;;2.58;;
84478;SDS011;74701;43.248;0.066;2024-01-30T12:42:54;12.40;;;2.78;;
84478;SDS011;74701;43.248;0.066;2024-01-30T12:45:20;8.18;;;2.60;;
84478;SDS011;74701;43.248;0.066;2024-01-30T12:47:47;8.43;;;3.42;;
84478;SDS011;74701;43.248;0.066;2024-01-30T12:50:13;4.65;;;2.42;;
84478;SDS011;74701;43.248;0.066;2024-01-30T12:52:41;8.43;;;3.20;;
84478;SDS011;74701;43.248;0.066;2024-01-30T12:55:07;7.53;;;2.80;;
84478;SDS011;74701;43.248;0.066;2024-01-30T12:57:33;6.32;;;3.05;;
84478;SDS011;74701;43.248;0.066;2024-01-30T12:59:59;5.82;;;3.33;;
84478;SDS011;74701;43.248;0.066;2024-01-30T13:02:25;8.20;;;3.22;;
84478;SDS011;74701;43.248;0.066;2024-01-30T13:04:55;9.38;;;3.97;;
84478;SDS011;74701;43.248;0.066;2024-01-30T13:07:21;9.25;;;3.65;;
84478;SDS011;74701;43.248;0.066;2024-01-30T13:09:47;10.40;;;3.15;;
84478;SDS011;74701;43.248;0.066;2024-01-30T13:12:13;7.05;;;3.00;;
84478;SDS011;74701;43.248;0.066;2024-01-30T13:14:39;9.00;;;3.90;;
84478;SDS011;74701;43.248;0.066;2024-01-30T13:17:05;8.35;;;4.15;;
84478;SDS011;74701;43.248;0.066;2024-01-30T13:19:31;9.05;;;4.28;;
84478;SDS011;74701;43.248;0.066;2024-01-30T13:21:57;7.07;;;2.88;;
84478;SDS011;74701;43.248;0.066;2024-01-30T13:24:23;8.65;;;2.70;;
84478;SDS011;74701;43.248;0.066;2024-01-30T13:26:49;6.90;;;2.58;;
84478;SDS011;74701;43.248;0.066;2024-01-30T13:29:16;4.88;;;2.45;;
84478;SDS011;74701;43.248;0.066;2024-01-30T13:31:42;7.15;;;3.58;;
84478;SDS011;74701;43.248;0.066;2024-01-30T13:34:09;8.00;;;2.75;;
84478;SDS011;74701;43.248;0.066;2024-01-30T13:36:35;6.38;;;2.05;;
84478;SDS011;74701;43.248;0.066;2024-01-30T13:39:01;4.20;;;2.50;;
84478;SDS011;74701;43.248;0.066;2024-01-30T13:41:27;7.65;;;2.60;;
84478;SDS011;74701;43.248;0.066;2024-01-30T13:43:56;10.32;;;2.63;;
84478;SDS011;74701;43.248;0.066;2024-01-30T13:46:22;8.52;;;3.85;;
84478;SDS011;74701;43.248;0.066;2024-01-30T13:48:48;4.97;;;2.30;;
84478;SDS011;74701;43.248;0.066;2024-01-30T13:51:14;7.00;;;2.90;;
84478;SDS011;74701;43.248;0.066;2024-01-30T13:53:42;10.70;;;2.92;;
84478;SDS011;74701;43.248;0.066;2024-01-30T13:56:08;7.18;;;3.08;;
84478;SDS011;74701;43.248;0.066;2024-01-30T13:58:34;6.25;;;2.63;;
84478;SDS011;74701;43.248;0.066;2024-01-30T14:01:01;3.75;;;1.88;;
84478;SDS011;74701;43.248;0.066;2024-01-30T14:03:27;10.70;;;2.70;;
84478;SDS011;74701;43.248;0.066;2024-01-30T14:05:54;6.60;;;2.25;;
84478;SDS011;74701;43.248;0.066;2024-01-30T14:08:20;7.82;;;2.35;;
84478;SDS011;74701;43.248;0.066;2024-01-30T14:10:48;7.88;;;2.72;;
84478;SDS011;74701;43.248;0.066;2024-01-30T14:13:14;6.15;;;2.40;;
84478;SDS011;74701;43.248;0.066;2024-01-30T14:15:40;7.63;;;2.42;;
84478;SDS011;74701;43.248;0.066;2024-01-30T14:18:07;5.63;;;2.70;;
84478;SDS011;74701;43.248;0.066;2024-01-30T14:20:34;7.47;;;2.47;;
84478;SDS011;74701;43.248;0.066;2024-01-30T14:23:00;8.20;;;2.72;;
84478;SDS011;74701;43.248;0.066;2024-01-30T14:25:26;7.93;;;3.30;;
84478;SDS011;74701;43.248;0.066;2024-01-30T14:27:52;4.65;;;2.25;;
84478;SDS011;74701;43.248;0.066;2024-01-30T14:30:18;9.60;;;2.60;;